createdAt,value
2023-01-20T00:03:42.647Z,10.43
2023-01-20T00:08:44.127Z,7.82
2023-01-20T00:19:00.911Z,10.15
2023-01-20T00:24:02.390Z,9.48
2023-01-20T00:29:03.846Z,10.48
2023-01-20T00:34:05.460Z,10.77
2023-01-20T00:39:06.926Z,10.20
2023-01-20T00:44:08.340Z,10.10
2023-01-20T00:49:09.980Z,10.85
2023-01-20T00:54:11.364Z,10.93
2023-01-20T00:59:12.735Z,11.20
2023-01-20T01:09:29.433Z,10.75
2023-01-20T01:14:31.411Z,12.35
2023-01-20T01:19:32.957Z,11.50
2023-01-20T01:24:34.351Z,11.25
2023-01-20T01:29:35.778Z,10.10
2023-01-20T01:34:37.158Z,11.55
2023-01-20T01:39:38.571Z,12.85
2023-01-20T01:44:59.949Z,13.10
2023-01-20T01:50:01.441Z,12.27
2023-01-20T01:55:03.278Z,13.50
2023-01-20T02:00:06.232Z,13.20
2023-01-20T02:05:07.800Z,15.20
2023-01-20T02:10:09.521Z,13.55
2023-01-20T02:15:11.169Z,14.23
2023-01-20T02:20:21.471Z,16.85
2023-01-20T02:25:41.452Z,17.80
2023-01-20T02:30:54.216Z,18.33
2023-01-20T02:35:59.959Z,16.33
2023-01-20T02:41:10.339Z,17.13
2023-01-20T02:46:14.139Z,15.85
2023-01-20T02:51:22.926Z,19.00
2023-01-20T02:56:26.878Z,16.77
2023-01-20T03:01:33.613Z,15.48
2023-01-20T03:06:37.224Z,18.48
2023-01-20T03:11:41.220Z,16.15
2023-01-20T03:16:42.755Z,18.15
2023-01-20T03:21:44.348Z,13.80
2023-01-20T03:26:45.799Z,15.05
2023-01-20T03:31:50.013Z,16.27
2023-01-20T03:36:52.188Z,17.60
2023-01-20T03:42:01.238Z,21.83
2023-01-20T03:47:08.782Z,32.13
2023-01-20T03:52:16.468Z,36.92
2023-01-20T03:57:20.079Z,37.50
2023-01-20T04:02:22.535Z,44.92
2023-01-20T04:07:33.061Z,44.15
2023-01-20T04:12:34.572Z,44.75
2023-01-20T04:17:36.029Z,46.45
2023-01-20T04:22:57.332Z,49.20
2023-01-20T04:27:58.803Z,52.25
2023-01-20T04:33:00.245Z,46.50
2023-01-20T04:38:01.724Z,45.35
2023-01-20T04:43:03.176Z,43.22
2023-01-20T04:48:23.150Z,52.03
2023-01-20T04:53:24.559Z,48.35
2023-01-20T04:58:25.979Z,46.95
2023-01-20T05:03:39.267Z,44.25
2023-01-20T05:08:41.059Z,44.15
2023-01-20T05:13:42.750Z,39.25
2023-01-20T05:18:44.211Z,42.45
2023-01-20T05:23:45.593Z,40.00
2023-01-20T05:28:46.978Z,37.72
2023-01-20T05:33:48.345Z,46.03
2023-01-20T05:38:49.746Z,34.97
2023-01-20T05:43:52.824Z,36.60
2023-01-20T05:48:54.264Z,34.30
2023-01-20T05:53:55.835Z,37.05
2023-01-20T05:58:57.350Z,38.00
2023-01-20T06:03:58.827Z,35.38
2023-01-20T06:09:00.260Z,38.50
2023-01-20T06:14:01.945Z,33.60
2023-01-20T06:19:03.430Z,33.00
2023-01-20T06:24:05.054Z,31.08
2023-01-20T06:29:06.568Z,32.15
2023-01-20T06:34:08.017Z,36.88
2023-01-20T06:39:09.481Z,37.78
2023-01-20T06:44:10.919Z,38.60
2023-01-20T06:49:12.440Z,42.90
2023-01-20T06:54:13.892Z,42.35
2023-01-20T06:59:15.280Z,46.20
2023-01-20T07:04:16.686Z,43.67
2023-01-20T07:09:18.101Z,47.83
2023-01-20T07:14:19.571Z,52.83
2023-01-20T07:19:21.108Z,53.53
2023-01-20T07:24:22.548Z,56.20
2023-01-20T07:29:23.985Z,49.05
2023-01-20T07:34:25.506Z,57.63
2023-01-20T07:39:45.048Z,57.28
2023-01-20T07:44:46.568Z,58.88
2023-01-20T07:49:47.955Z,52.50
2023-01-20T07:54:49.367Z,56.70
2023-01-20T07:59:50.794Z,51.97
2023-01-20T08:04:52.277Z,54.47
2023-01-20T08:09:53.814Z,52.80
2023-01-20T08:14:55.535Z,55.35
2023-01-20T08:19:57.013Z,56.08
2023-01-20T08:24:58.419Z,58.15
2023-01-20T08:29:59.969Z,52.67
2023-01-20T08:35:01.441Z,53.17
2023-01-20T08:40:02.979Z,51.85
2023-01-20T08:45:04.987Z,50.45
2023-01-20T08:50:06.773Z,51.55
2023-01-20T08:55:08.861Z,55.25
2023-01-20T09:00:11.078Z,58.10
2023-01-20T09:05:13.426Z,64.95
2023-01-20T09:10:15.091Z,61.80
2023-01-20T09:15:17.076Z,57.38
2023-01-20T09:20:18.549Z,54.80
2023-01-20T09:25:20.280Z,57.22
2023-01-20T09:30:21.790Z,58.58
2023-01-20T09:35:23.238Z,49.95
2023-01-20T09:41:02.560Z,57.97
2023-01-20T09:46:10.253Z,54.67
2023-01-20T09:51:34.278Z,58.30
2023-01-20T09:56:38.538Z,59.10
2023-01-20T10:01:44.697Z,63.20
2023-01-20T10:06:48.710Z,56.08
2023-01-20T10:11:51.655Z,61.72
2023-01-20T10:16:53.059Z,58.83
2023-01-20T10:22:01.376Z,54.13
2023-01-20T10:27:03.800Z,53.15
2023-01-20T10:32:16.224Z,49.20
2023-01-20T10:37:17.696Z,49.85
2023-01-20T10:42:20.166Z,49.00
2023-01-20T10:47:21.576Z,42.90
2023-01-20T10:52:31.797Z,46.20
2023-01-20T10:57:33.888Z,40.83
2023-01-20T11:02:37.891Z,38.80
2023-01-20T11:07:40.400Z,35.35
2023-01-20T11:13:00.627Z,32.13
2023-01-20T11:23:03.369Z,34.17
2023-01-20T11:28:06.212Z,34.97
2023-01-20T11:33:19.050Z,33.60
2023-01-20T11:38:24.922Z,32.40
2023-01-20T11:43:30.765Z,22.55
2023-01-20T11:48:32.229Z,29.88
2023-01-20T11:53:34.165Z,30.23
2023-01-20T11:58:48.951Z,31.02
2023-01-20T12:03:50.366Z,28.58
2023-01-20T12:09:02.711Z,28.10
2023-01-20T12:14:22.741Z,31.42
2023-01-20T12:19:27.665Z,33.35
2023-01-20T12:24:52.181Z,31.27
2023-01-20T12:29:56.226Z,31.35
2023-01-20T12:34:57.672Z,32.85
2023-01-20T12:40:01.947Z,35.03
2023-01-20T12:45:09.806Z,29.63
2023-01-20T12:50:30.134Z,27.00
2023-01-20T12:55:36.513Z,32.35
2023-01-20T13:00:58.393Z,29.45
2023-01-20T13:06:15.099Z,31.65
2023-01-20T13:11:28.938Z,32.83
2023-01-20T13:16:49.032Z,27.85
2023-01-20T13:22:06.525Z,35.17
2023-01-20T13:27:10.207Z,34.70
2023-01-20T13:32:30.174Z,34.05
2023-01-20T13:37:35.551Z,34.17
2023-01-20T13:42:36.925Z,34.30
2023-01-20T13:48:00.011Z,35.20
2023-01-20T13:53:02.435Z,32.78
2023-01-20T13:58:03.822Z,32.58
2023-01-20T14:03:12.616Z,31.00
2023-01-20T14:08:15.177Z,34.95
2023-01-20T14:13:18.738Z,31.30
2023-01-20T14:18:24.973Z,32.28
2023-01-20T14:23:28.663Z,31.55
2023-01-20T14:28:30.349Z,31.80
2023-01-20T14:33:31.784Z,29.38
2023-01-20T14:38:33.323Z,30.23
2023-01-20T14:43:34.765Z,30.30
2023-01-20T14:48:37.222Z,30.95
2023-01-20T14:53:38.643Z,34.75
2023-01-20T14:58:44.586Z,37.17
2023-01-20T15:03:46.130Z,38.80
2023-01-20T15:09:05.126Z,42.15
2023-01-20T15:14:10.963Z,35.53
2023-01-20T15:19:15.361Z,40.33
2023-01-20T15:24:19.679Z,39.10
2023-01-20T15:29:23.967Z,39.17
2023-01-20T15:34:25.683Z,41.45
2023-01-20T15:39:30.285Z,45.90
2023-01-20T15:44:31.748Z,44.63
2023-01-20T15:49:33.178Z,43.20
2023-01-20T15:54:34.556Z,46.95
2023-01-20T15:59:36.232Z,49.33
2023-01-20T16:04:37.624Z,46.35
2023-01-20T16:09:39.166Z,38.67
2023-01-20T16:14:40.658Z,42.10
2023-01-20T16:19:42.527Z,36.05
2023-01-20T16:24:44.196Z,41.65
2023-01-20T16:29:45.614Z,40.08
2023-01-20T16:34:47.068Z,39.13
2023-01-20T16:39:48.467Z,46.63
2023-01-20T16:44:52.576Z,35.85
2023-01-20T16:49:54.027Z,37.17
2023-01-20T16:54:55.465Z,34.33
2023-01-20T16:59:56.875Z,37.78
2023-01-20T17:04:58.299Z,39.70
2023-01-20T17:09:59.751Z,37.63
2023-01-20T17:15:01.193Z,37.92
2023-01-20T17:20:02.635Z,35.30
2023-01-20T17:25:04.949Z,33.90
2023-01-20T17:30:10.133Z,37.63
2023-01-20T17:35:11.605Z,34.22
2023-01-20T17:40:13.575Z,34.58
2023-01-20T17:45:15.410Z,31.60
2023-01-20T17:50:17.272Z,29.40
2023-01-20T17:55:18.924Z,35.03
2023-01-20T18:00:20.554Z,38.33
2023-01-20T18:05:22.085Z,33.92
2023-01-20T18:10:23.503Z,37.22
2023-01-20T18:15:24.909Z,37.08
2023-01-20T18:20:26.402Z,34.00
2023-01-20T18:25:27.879Z,31.98
2023-01-20T18:30:29.315Z,28.63
2023-01-20T18:35:30.745Z,29.65
2023-01-20T18:40:32.415Z,37.75
2023-01-20T18:45:33.833Z,34.50
2023-01-20T18:50:35.267Z,34.10
2023-01-20T18:55:36.677Z,37.28
2023-01-20T19:00:38.421Z,44.95
2023-01-20T19:05:40.032Z,41.08
2023-01-20T19:10:41.513Z,40.65
2023-01-20T19:15:42.974Z,45.05
2023-01-20T19:20:44.483Z,46.50
2023-01-20T19:25:45.931Z,43.30
2023-01-20T19:30:47.483Z,44.33
2023-01-20T19:35:48.955Z,44.03
2023-01-20T19:40:50.515Z,45.22
2023-01-20T19:45:51.911Z,44.13
2023-01-20T19:50:53.433Z,43.67
2023-01-20T19:56:00.230Z,46.72
2023-01-20T20:01:12.302Z,44.00
2023-01-20T20:06:30.302Z,42.65
2023-01-20T20:11:32.507Z,50.58
2023-01-20T20:16:34.986Z,47.22
2023-01-20T20:21:36.648Z,53.55
2023-01-20T20:26:38.392Z,43.40
2023-01-20T20:31:40.495Z,43.35
2023-01-20T20:36:42.053Z,44.55
2023-01-20T20:41:43.927Z,47.28
2023-01-20T20:46:45.380Z,45.67
2023-01-20T20:51:46.997Z,50.13
2023-01-20T20:56:48.628Z,50.92
2023-01-20T21:01:50.595Z,51.95
2023-01-20T21:06:52.061Z,52.55
2023-01-20T21:11:53.507Z,55.85
2023-01-20T21:16:54.976Z,56.75
2023-01-20T21:21:56.390Z,57.25
2023-01-20T21:26:57.783Z,58.85
2023-01-20T21:31:59.158Z,58.60
2023-01-20T21:37:00.652Z,54.30
2023-01-20T21:42:02.175Z,61.60
2023-01-20T21:47:05.111Z,71.38
2023-01-20T21:52:27.906Z,86.57
2023-01-20T21:57:29.806Z,56.38
2023-01-20T22:02:31.197Z,55.70
2023-01-20T22:07:32.750Z,52.78
2023-01-20T22:12:35.631Z,50.95
2023-01-20T22:17:37.755Z,57.58
2023-01-20T22:22:39.191Z,50.40
2023-01-20T22:27:40.618Z,54.47
2023-01-20T22:32:42.068Z,54.13
2023-01-20T22:37:44.151Z,56.28
2023-01-20T22:42:45.760Z,54.90
2023-01-20T22:47:47.173Z,53.33
2023-01-20T22:52:48.641Z,56.08
2023-01-20T22:57:50.242Z,58.75
2023-01-20T23:02:51.682Z,56.15
2023-01-20T23:07:53.075Z,55.05
2023-01-20T23:13:00.581Z,56.75
2023-01-20T23:18:01.984Z,63.08
2023-01-20T23:23:03.733Z,61.22
2023-01-20T23:28:05.177Z,52.67
2023-01-20T23:33:06.988Z,62.30
2023-01-20T23:38:08.739Z,55.55
2023-01-20T23:43:10.141Z,64.22
2023-01-20T23:48:11.544Z,56.55
2023-01-20T23:53:12.974Z,59.28
2023-01-20T23:58:14.778Z,59.88
